createdAt,value
2018-03-03T00:00:46.179Z,0.00
2018-03-03T00:02:39.298Z,0.00
2018-03-03T00:03:39.244Z,0.00
2018-03-03T00:05:32.185Z,0.00
2018-03-03T00:06:32.118Z,0.00
2018-03-03T00:08:25.099Z,0.00
2018-03-03T00:09:25.069Z,0.00
2018-03-03T00:11:17.878Z,0.00
2018-03-03T00:12:17.808Z,0.00
2018-03-03T00:14:10.828Z,0.00
2018-03-03T00:15:10.768Z,0.00
2018-03-03T00:17:03.714Z,0.00
2018-03-03T00:18:03.644Z,0.00
2018-03-03T00:19:56.450Z,0.00
2018-03-03T00:20:56.422Z,0.00
2018-03-03T00:22:49.489Z,0.00
2018-03-03T00:23:49.423Z,0.00
2018-03-03T00:25:42.354Z,0.00
2018-03-03T00:26:42.313Z,0.00
2018-03-03T00:28:35.241Z,0.00
2018-03-03T00:29:35.183Z,0.00
2018-03-03T00:31:28.117Z,0.00
2018-03-03T00:32:28.084Z,0.00
2018-03-03T00:34:21.407Z,0.00
2018-03-03T00:35:21.332Z,0.00
2018-03-03T00:37:14.141Z,0.00
2018-03-03T00:38:14.090Z,0.00
2018-03-03T00:40:07.042Z,0.00
2018-03-03T00:41:06.987Z,0.00
2018-03-03T00:42:59.968Z,0.00
2018-03-03T00:43:59.894Z,0.00
2018-03-03T00:45:52.824Z,0.00
2018-03-03T00:46:52.779Z,0.00
2018-03-03T00:48:45.723Z,0.00
2018-03-03T00:49:45.664Z,0.00
2018-03-03T00:51:38.848Z,0.00
2018-03-03T00:52:38.737Z,0.00
2018-03-03T00:54:31.688Z,0.00
2018-03-03T00:55:31.618Z,0.00
2018-03-03T00:57:24.565Z,0.00
2018-03-03T00:58:24.524Z,0.00
2018-03-03T01:00:17.644Z,0.00
2018-03-03T01:01:17.592Z,0.00
2018-03-03T01:03:10.565Z,0.00
2018-03-03T01:04:10.479Z,0.00
2018-03-03T01:06:03.433Z,0.00
2018-03-03T01:07:03.408Z,0.00
2018-03-03T01:08:56.593Z,0.00
2018-03-03T01:09:56.422Z,0.00
2018-03-03T01:11:49.241Z,0.00
2018-03-03T01:12:49.182Z,0.00
2018-03-03T01:14:42.134Z,0.00
2018-03-03T01:15:42.050Z,0.00
2018-03-03T01:17:34.993Z,0.00
2018-03-03T01:18:34.951Z,0.00
2018-03-03T01:20:28.053Z,0.00
2018-03-03T01:21:27.995Z,0.00
2018-03-03T01:23:20.925Z,0.00
2018-03-03T01:24:20.884Z,0.00
2018-03-03T01:26:13.820Z,0.00
2018-03-03T01:27:13.765Z,0.00
2018-03-03T01:29:06.929Z,0.00
2018-03-03T01:30:06.837Z,0.00
2018-03-03T01:31:59.782Z,0.00
2018-03-03T01:32:59.710Z,0.00
2018-03-03T01:34:52.675Z,0.00
2018-03-03T01:35:52.637Z,0.00
2018-03-03T01:37:45.768Z,0.00
2018-03-03T01:38:45.720Z,0.00
2018-03-03T01:40:38.660Z,0.00
2018-03-03T01:41:38.594Z,0.00
2018-03-03T01:43:31.528Z,0.00
2018-03-03T01:44:31.486Z,0.00
2018-03-03T01:46:24.659Z,0.00
2018-03-03T01:47:24.552Z,0.00
2018-03-03T01:49:17.478Z,0.00
2018-03-03T01:50:17.425Z,0.00
2018-03-03T01:52:10.384Z,0.00
2018-03-03T01:53:10.329Z,0.00
2018-03-03T01:55:03.434Z,0.00
2018-03-03T01:56:03.369Z,0.00
2018-03-03T01:57:56.313Z,0.00
2018-03-03T01:58:56.265Z,0.00
2018-03-03T02:00:49.195Z,0.00
2018-03-03T02:01:49.159Z,0.00
2018-03-03T02:03:42.290Z,0.00
2018-03-03T02:04:42.211Z,0.00
2018-03-03T02:06:35.019Z,0.00
2018-03-03T02:07:34.959Z,0.00
2018-03-03T02:09:27.873Z,0.00
2018-03-03T02:10:27.835Z,0.00
2018-03-03T02:12:20.793Z,0.00
2018-03-03T02:13:20.729Z,0.00
2018-03-03T02:15:13.518Z,0.00
2018-03-03T02:16:13.478Z,0.00
2018-03-03T02:18:06.445Z,0.00
2018-03-03T02:19:06.355Z,0.00
2018-03-03T02:20:59.281Z,0.00
2018-03-03T02:21:59.240Z,0.00
2018-03-03T02:23:52.218Z,0.00
2018-03-03T02:24:52.130Z,0.00
2018-03-03T02:26:45.325Z,0.00
2018-03-03T02:27:45.209Z,0.00
2018-03-03T02:29:38.140Z,0.00
2018-03-03T02:30:38.085Z,0.00
2018-03-03T02:32:31.043Z,0.00
2018-03-03T02:33:30.973Z,0.00
2018-03-03T02:35:24.119Z,0.00
2018-03-03T02:36:24.075Z,0.00
2018-03-03T02:38:17.018Z,0.00
2018-03-03T02:39:16.953Z,0.00
2018-03-03T02:41:09.879Z,0.00
2018-03-03T02:42:09.841Z,0.00
2018-03-03T02:44:02.842Z,0.00
2018-03-03T02:45:02.742Z,0.00
2018-03-03T02:46:55.699Z,0.00
2018-03-03T02:47:55.674Z,0.00
2018-03-03T02:49:48.633Z,0.00
2018-03-03T02:50:48.562Z,0.00
2018-03-03T02:52:41.522Z,0.00
2018-03-03T02:53:41.441Z,0.00
2018-03-03T02:55:34.279Z,0.00
2018-03-03T02:56:34.210Z,0.00
2018-03-03T02:58:27.141Z,0.00
2018-03-03T02:59:26.958Z,0.00
2018-03-03T03:01:19.886Z,0.00
2018-03-03T03:02:19.842Z,0.00
2018-03-03T03:04:12.665Z,0.00
2018-03-03T03:05:12.591Z,0.00
2018-03-03T03:07:05.552Z,0.00
2018-03-03T03:08:05.504Z,0.00
2018-03-03T03:09:58.360Z,0.00
2018-03-03T03:10:58.305Z,0.00
2018-03-03T03:12:51.250Z,0.00
2018-03-03T03:13:51.176Z,0.00
2018-03-03T03:15:44.151Z,0.00
2018-03-03T03:16:44.076Z,0.00
2018-03-03T03:18:37.024Z,0.00
2018-03-03T03:19:36.956Z,0.00
2018-03-03T03:21:29.840Z,0.00
2018-03-03T03:22:29.779Z,0.00
2018-03-03T03:24:22.744Z,0.00
2018-03-03T03:25:22.674Z,0.00
2018-03-03T03:27:15.649Z,0.00
2018-03-03T03:28:15.585Z,0.00
2018-03-03T03:30:08.515Z,0.00
2018-03-03T03:31:08.461Z,0.00
2018-03-03T03:33:01.264Z,0.00
2018-03-03T03:34:01.214Z,0.00
2018-03-03T03:35:54.072Z,0.00
2018-03-03T03:36:53.990Z,0.00
2018-03-03T03:38:46.936Z,0.00
2018-03-03T03:39:46.885Z,0.00
2018-03-03T03:41:39.829Z,0.00
2018-03-03T03:42:39.832Z,0.00
2018-03-03T03:44:32.807Z,0.00
2018-03-03T03:45:32.756Z,0.00
2018-03-03T03:47:25.670Z,0.00
2018-03-03T03:48:25.542Z,0.00
2018-03-03T03:50:18.494Z,0.00
2018-03-03T03:51:18.424Z,0.00
2018-03-03T03:53:11.372Z,0.00
2018-03-03T03:54:11.327Z,0.00
2018-03-03T03:56:04.146Z,0.00
2018-03-03T03:57:04.079Z,0.00
2018-03-03T03:58:57.081Z,0.00
2018-03-03T03:59:56.974Z,0.00
2018-03-03T04:01:49.810Z,0.00
2018-03-03T04:02:49.729Z,0.00
2018-03-03T04:04:42.639Z,0.00
2018-03-03T04:05:42.602Z,0.00
2018-03-03T04:07:35.416Z,0.00
2018-03-03T04:08:35.405Z,0.00
2018-03-03T04:10:28.339Z,0.00
2018-03-03T04:11:28.293Z,0.00
2018-03-03T04:13:21.303Z,0.00
2018-03-03T04:14:21.240Z,0.00
2018-03-03T04:16:14.200Z,0.00
2018-03-03T04:17:14.132Z,0.00
2018-03-03T04:19:07.091Z,0.00
2018-03-03T04:20:07.011Z,0.00
2018-03-03T04:21:59.819Z,0.00
2018-03-03T04:22:59.776Z,0.00
2018-03-03T04:24:52.781Z,0.00
2018-03-03T04:25:52.568Z,0.00
2018-03-03T04:27:45.521Z,0.00
2018-03-03T04:28:45.470Z,0.00
2018-03-03T04:30:38.416Z,0.00
2018-03-03T04:31:38.421Z,0.00
2018-03-03T04:33:31.489Z,0.00
2018-03-03T04:34:31.428Z,0.00
2018-03-03T04:36:24.395Z,0.00
2018-03-03T04:37:24.355Z,0.00
2018-03-03T04:39:17.284Z,0.00
2018-03-03T04:40:17.295Z,0.00
2018-03-03T04:42:10.355Z,0.00
2018-03-03T04:43:10.269Z,0.00
2018-03-03T04:45:03.205Z,0.00
2018-03-03T04:46:03.174Z,0.00
2018-03-03T04:47:56.130Z,0.00
2018-03-03T04:48:56.056Z,0.00
2018-03-03T04:50:49.097Z,0.00
2018-03-03T04:51:49.057Z,0.00
2018-03-03T04:53:42.022Z,0.00
2018-03-03T04:54:42.000Z,0.00
2018-03-03T04:56:34.780Z,0.00
2018-03-03T04:57:34.716Z,0.00
2018-03-03T04:59:27.661Z,0.00
2018-03-03T05:00:27.607Z,0.00
2018-03-03T05:02:20.801Z,0.00
2018-03-03T05:03:20.680Z,0.00
2018-03-03T05:05:13.620Z,0.00
2018-03-03T05:06:13.560Z,0.00
2018-03-03T05:08:06.356Z,0.00
2018-03-03T05:09:06.320Z,0.00
2018-03-03T05:10:59.249Z,0.00
2018-03-03T05:11:59.186Z,0.00
2018-03-03T05:13:52.088Z,0.00
2018-03-03T05:14:52.043Z,0.00
2018-03-03T05:16:44.985Z,0.00
2018-03-03T05:17:44.934Z,0.00
2018-03-03T05:19:37.886Z,0.00
2018-03-03T05:20:37.823Z,0.00
2018-03-03T05:22:30.766Z,0.00
2018-03-03T05:23:30.725Z,0.00
2018-03-03T05:25:23.531Z,0.00
2018-03-03T05:26:23.476Z,0.00
2018-03-03T05:28:16.406Z,0.00
2018-03-03T05:29:16.354Z,0.00
2018-03-03T05:31:09.306Z,0.00
2018-03-03T05:32:09.235Z,0.00
2018-03-03T05:34:02.161Z,0.00
2018-03-03T05:35:02.126Z,0.00
2018-03-03T05:36:55.262Z,0.00
2018-03-03T05:37:55.219Z,0.00
2018-03-03T05:39:48.169Z,0.00
2018-03-03T05:40:48.101Z,0.00
2018-03-03T05:42:41.052Z,0.00
2018-03-03T05:43:40.980Z,0.00
2018-03-03T05:45:33.788Z,0.00
2018-03-03T05:46:33.746Z,0.00
2018-03-03T05:48:26.715Z,0.00
2018-03-03T05:49:26.660Z,4.00
2018-03-03T05:51:19.466Z,0.00
2018-03-03T05:52:19.400Z,4.00
2018-03-03T05:54:12.351Z,4.00
2018-03-03T05:55:12.295Z,4.00
2018-03-03T05:57:05.090Z,8.00
2018-03-03T05:58:05.060Z,4.00
2018-03-03T05:59:58.242Z,8.00
2018-03-03T06:00:58.102Z,8.00
2018-03-03T06:02:51.061Z,16.00
2018-03-03T06:03:50.996Z,20.00
2018-03-03T06:05:43.922Z,20.00
2018-03-03T06:06:43.875Z,28.00
2018-03-03T06:08:37.117Z,32.00
2018-03-03T06:09:36.953Z,40.00
2018-03-03T06:11:29.747Z,44.00
2018-03-03T06:12:29.707Z,48.00
2018-03-03T06:14:22.650Z,56.00
2018-03-03T06:15:22.580Z,60.00
2018-03-03T06:17:15.538Z,72.00
2018-03-03T06:18:15.470Z,80.00
2018-03-03T06:20:08.390Z,96.00
2018-03-03T06:21:08.330Z,108.00
2018-03-03T06:23:01.306Z,128.00
2018-03-03T06:24:01.236Z,140.00
2018-03-03T06:25:54.160Z,164.00
2018-03-03T06:26:54.194Z,176.00
2018-03-03T06:28:47.075Z,200.00
2018-03-03T06:29:47.012Z,216.00
2018-03-03T06:31:39.852Z,244.00
2018-03-03T06:32:39.811Z,260.00
2018-03-03T06:34:32.760Z,296.00
2018-03-03T06:35:32.689Z,312.00
2018-03-03T06:37:25.662Z,356.00
2018-03-03T06:38:25.596Z,376.00
2018-03-03T06:40:18.550Z,416.00
2018-03-03T06:41:18.501Z,440.00
2018-03-03T06:43:11.423Z,488.00
2018-03-03T06:44:11.336Z,508.00
2018-03-03T06:46:04.276Z,540.00
2018-03-03T06:47:04.210Z,556.00
2018-03-03T06:48:57.156Z,592.00
2018-03-03T06:49:57.221Z,616.00
2018-03-03T06:51:49.887Z,664.00
2018-03-03T06:52:49.842Z,692.00
2018-03-03T06:54:42.797Z,728.00
2018-03-03T06:55:42.777Z,752.00
2018-03-03T06:57:35.515Z,776.00
2018-03-03T06:58:35.471Z,792.00
2018-03-03T07:00:28.403Z,820.00
2018-03-03T07:01:28.350Z,844.00
2018-03-03T07:03:21.360Z,892.00
2018-03-03T07:04:21.322Z,920.00
2018-03-03T07:06:14.520Z,988.00
2018-03-03T07:07:14.416Z,1024.00
2018-03-03T07:09:07.361Z,1088.00
2018-03-03T07:10:07.293Z,1108.00
2018-03-03T07:12:00.257Z,1140.00
2018-03-03T07:13:00.261Z,1160.00
2018-03-03T07:14:53.375Z,1216.00
2018-03-03T07:15:53.227Z,1260.00
2018-03-03T07:17:46.216Z,1340.00
2018-03-03T07:18:46.140Z,1380.00
2018-03-03T07:20:39.082Z,1472.00
2018-03-03T07:21:39.037Z,1512.00
2018-03-03T07:23:32.145Z,1600.00
2018-03-03T07:24:32.123Z,1640.00
2018-03-03T07:26:25.072Z,1716.00
2018-03-03T07:27:25.014Z,1756.00
2018-03-03T07:29:17.929Z,1832.00
2018-03-03T07:30:17.893Z,1868.00
2018-03-03T07:32:11.071Z,1952.00
2018-03-03T07:33:10.991Z,1992.00
2018-03-03T07:35:03.916Z,2084.00
2018-03-03T07:36:03.864Z,2128.00
2018-03-03T07:37:56.828Z,2208.00
2018-03-03T07:38:56.765Z,2252.00
2018-03-03T07:40:49.539Z,2372.00
2018-03-03T07:41:49.485Z,2452.00
2018-03-03T07:43:42.316Z,2592.00
2018-03-03T07:44:42.239Z,2652.00
2018-03-03T07:46:35.082Z,2748.00
2018-03-03T07:47:35.012Z,2776.00
2018-03-03T07:49:27.955Z,2844.00
2018-03-03T07:50:27.893Z,2888.00
2018-03-03T07:52:20.845Z,2952.00
2018-03-03T07:53:20.803Z,2992.00
2018-03-03T07:55:13.981Z,3088.00
2018-03-03T07:56:13.848Z,3144.00
2018-03-03T07:58:06.807Z,3260.00
2018-03-03T07:59:06.749Z,3316.00
2018-03-03T08:00:59.652Z,3424.00
2018-03-03T08:01:59.700Z,3480.00
2018-03-03T08:03:52.672Z,3600.00
2018-03-03T08:04:52.623Z,3672.00
2018-03-03T08:06:45.556Z,3776.00
2018-03-03T08:07:45.499Z,3836.00
2018-03-03T08:09:38.453Z,3928.00
2018-03-03T08:10:38.414Z,3980.00
2018-03-03T08:12:31.332Z,4092.00
2018-03-03T08:13:31.300Z,4160.00
2018-03-03T08:15:24.236Z,4276.00
2018-03-03T08:16:24.173Z,4336.00
2018-03-03T08:18:17.082Z,4480.00
2018-03-03T08:19:17.042Z,4556.00
2018-03-03T08:21:10.015Z,4688.00
2018-03-03T08:22:09.949Z,4772.00
2018-03-03T08:24:03.003Z,4904.00
2018-03-03T08:25:02.924Z,4968.00
2018-03-03T08:26:55.851Z,5092.00
2018-03-03T08:27:55.667Z,5172.00
2018-03-03T08:29:48.604Z,5300.00
2018-03-03T08:30:48.552Z,5372.00
2018-03-03T08:32:41.472Z,5520.00
2018-03-03T08:33:41.541Z,5620.00
2018-03-03T08:35:34.380Z,5760.00
2018-03-03T08:36:34.319Z,5824.00
2018-03-03T08:38:27.121Z,5916.00
2018-03-03T08:39:27.083Z,5988.00
2018-03-03T08:41:20.022Z,6120.00
2018-03-03T08:42:19.963Z,6328.00
2018-03-03T08:44:12.893Z,6764.00
2018-03-03T08:45:12.843Z,7040.00
2018-03-03T08:47:05.657Z,7620.00
2018-03-03T08:48:05.603Z,7500.00
2018-03-03T08:49:58.768Z,8508.00
2018-03-03T08:50:58.687Z,8380.00
2018-03-03T08:52:51.629Z,8404.00
2018-03-03T08:53:51.579Z,7872.00
2018-03-03T08:55:44.527Z,7476.00
2018-03-03T08:56:44.463Z,7728.00
2018-03-03T08:58:37.672Z,8572.00
2018-03-03T08:59:37.555Z,9216.00
2018-03-03T09:01:30.483Z,10600.00
2018-03-03T09:02:30.435Z,10788.00
2018-03-03T09:04:23.412Z,11900.00
2018-03-03T09:05:23.351Z,12232.00
2018-03-03T09:07:16.123Z,12724.00
2018-03-03T09:08:16.083Z,12724.00
2018-03-03T09:10:08.906Z,13076.00
2018-03-03T09:11:08.834Z,13240.00
2018-03-03T09:13:01.674Z,12124.00
2018-03-03T09:14:01.589Z,11176.00
2018-03-03T09:15:54.538Z,11624.00
2018-03-03T09:16:54.483Z,11688.00
2018-03-03T09:18:47.459Z,12692.00
2018-03-03T09:19:47.403Z,13000.00
2018-03-03T09:21:40.190Z,13452.00
2018-03-03T09:22:40.157Z,13176.00
2018-03-03T09:24:33.039Z,12568.00
2018-03-03T09:25:32.974Z,12204.00
2018-03-03T09:27:25.917Z,12136.00
2018-03-03T09:28:25.879Z,12276.00
2018-03-03T09:30:19.319Z,12368.00
2018-03-03T09:31:19.271Z,12408.00
2018-03-03T09:33:12.175Z,13860.00
2018-03-03T09:34:12.057Z,12788.00
2018-03-03T09:36:04.925Z,15428.00
2018-03-03T09:37:04.818Z,14928.00
2018-03-03T09:38:57.769Z,15564.00
2018-03-03T09:39:57.714Z,15588.00
2018-03-03T09:41:50.634Z,15448.00
2018-03-03T09:42:50.607Z,15532.00
2018-03-03T09:44:44.625Z,15728.00
2018-03-03T09:45:44.540Z,15956.00
2018-03-03T09:47:37.332Z,15972.00
2018-03-03T09:48:37.287Z,15988.00
2018-03-03T09:50:30.117Z,16136.00
2018-03-03T09:51:30.060Z,16332.00
2018-03-03T09:53:22.975Z,16580.00
2018-03-03T09:54:22.943Z,16628.00
2018-03-03T09:56:16.901Z,16568.00
2018-03-03T09:57:16.813Z,16972.00
2018-03-03T09:59:09.747Z,18592.00
2018-03-03T10:00:09.708Z,40032.00
2018-03-03T10:02:06.294Z,67168.00
2018-03-03T10:03:02.488Z,63872.00
2018-03-03T10:04:55.459Z,35008.00
2018-03-03T10:05:55.389Z,32960.00
2018-03-03T10:07:48.520Z,57600.00
2018-03-03T10:08:48.459Z,56384.00
2018-03-03T10:10:41.737Z,63776.00
2018-03-03T10:11:41.383Z,68864.00
2018-03-03T10:13:34.320Z,71712.00
2018-03-03T10:14:34.295Z,65184.00
2018-03-03T10:16:27.427Z,62976.00
2018-03-03T10:17:27.337Z,60512.00
2018-03-03T10:19:20.283Z,64544.00
2018-03-03T10:20:20.253Z,62176.00
2018-03-03T10:22:13.227Z,48448.00
2018-03-03T10:23:13.205Z,47200.00
2018-03-03T10:25:06.250Z,43904.00
2018-03-03T10:26:06.214Z,40992.00
2018-03-03T10:27:59.211Z,39296.00
2018-03-03T10:28:59.174Z,42080.00
2018-03-03T10:30:52.096Z,50432.00
2018-03-03T10:31:52.047Z,50144.00
2018-03-03T10:33:44.908Z,54496.00
2018-03-03T10:34:44.854Z,49856.00
2018-03-03T10:36:37.774Z,48512.00
2018-03-03T10:37:37.708Z,49120.00
2018-03-03T10:39:30.674Z,47840.00
2018-03-03T10:40:30.642Z,44544.00
2018-03-03T10:42:44.560Z,51072.00
2018-03-03T10:43:23.539Z,52608.00
2018-03-03T10:45:16.451Z,54528.00
2018-03-03T10:46:16.448Z,50368.00
2018-03-03T10:48:09.370Z,44512.00
2018-03-03T10:49:09.340Z,46112.00
2018-03-03T10:51:02.272Z,36576.00
2018-03-03T10:52:02.225Z,34592.00
2018-03-03T10:53:55.645Z,29984.00
2018-03-03T10:54:55.579Z,28256.00
2018-03-03T10:56:48.586Z,24256.00
2018-03-03T10:57:48.530Z,25472.00
2018-03-03T11:01:11.754Z,24896.00
2018-03-03T11:02:11.704Z,24864.00
2018-03-03T11:04:04.659Z,25376.00
2018-03-03T11:05:04.570Z,25632.00
2018-03-03T11:06:57.524Z,25728.00
2018-03-03T11:07:57.619Z,24544.00
2018-03-03T11:09:50.413Z,24192.00
2018-03-03T11:10:50.350Z,24896.00
2018-03-03T11:12:43.401Z,26624.00
2018-03-03T11:13:43.160Z,25888.00
2018-03-03T11:15:36.321Z,28608.00
2018-03-03T11:16:36.207Z,30176.00
2018-03-03T11:18:29.167Z,32512.00
2018-03-03T11:19:29.128Z,29088.00
2018-03-03T11:21:22.277Z,24512.00
2018-03-03T11:22:22.158Z,23264.00
2018-03-03T11:24:14.963Z,23840.00
2018-03-03T11:25:14.934Z,24384.00
2018-03-03T11:27:07.813Z,27744.00
2018-03-03T11:28:07.785Z,29632.00
2018-03-03T11:30:00.727Z,33056.00
2018-03-03T11:31:00.675Z,33120.00
2018-03-03T11:32:53.679Z,31456.00
2018-03-03T11:33:53.519Z,28352.00
2018-03-03T11:35:46.483Z,25632.00
2018-03-03T11:36:46.425Z,23584.00
2018-03-03T11:38:39.323Z,22176.00
2018-03-03T11:39:39.293Z,23008.00
2018-03-03T11:41:32.221Z,24864.00
2018-03-03T11:42:32.188Z,26176.00
2018-03-03T11:44:25.153Z,26336.00
2018-03-03T11:45:25.112Z,26784.00
2018-03-03T11:47:18.083Z,27008.00
2018-03-03T11:48:18.004Z,23808.00
2018-03-03T11:50:10.931Z,20384.00
2018-03-03T11:51:10.889Z,19360.00
2018-03-03T11:53:04.027Z,18688.00
2018-03-03T11:54:03.971Z,18592.00
2018-03-03T11:55:56.948Z,18112.00
2018-03-03T11:56:56.871Z,17568.00
2018-03-03T11:58:49.828Z,16640.00
2018-03-03T11:59:49.804Z,16192.00
2018-03-03T12:01:42.626Z,15844.00
2018-03-03T12:02:42.574Z,15684.00
2018-03-03T12:04:35.437Z,15616.00
2018-03-03T12:05:35.375Z,15684.00
2018-03-03T12:07:28.275Z,15272.00
2018-03-03T12:08:28.249Z,14884.00
2018-03-03T12:10:21.205Z,15276.00
2018-03-03T12:11:21.205Z,14556.00
2018-03-03T12:13:14.468Z,13200.00
2018-03-03T12:14:14.278Z,13044.00
2018-03-03T12:16:07.239Z,12908.00
2018-03-03T12:17:07.189Z,12652.00
2018-03-03T12:19:00.141Z,12576.00
2018-03-03T12:20:00.087Z,12560.00
2018-03-03T12:21:53.224Z,12432.00
2018-03-03T12:22:53.154Z,12500.00
2018-03-03T12:24:46.118Z,12568.00
2018-03-03T12:25:46.067Z,12552.00
2018-03-03T12:27:39.049Z,12800.00
2018-03-03T12:28:39.003Z,13016.00
2018-03-03T12:30:31.926Z,13516.00
2018-03-03T12:31:32.825Z,13368.00
2018-03-03T12:33:24.830Z,13220.00
2018-03-03T12:34:24.759Z,13092.00
2018-03-03T12:36:17.705Z,12880.00
2018-03-03T12:37:17.686Z,12680.00
2018-03-03T12:39:10.626Z,12412.00
2018-03-03T12:40:10.555Z,12492.00
2018-03-03T12:42:03.379Z,12828.00
2018-03-03T12:43:03.360Z,12936.00
2018-03-03T12:44:56.330Z,13116.00
2018-03-03T12:45:56.274Z,12864.00
2018-03-03T12:47:49.206Z,11868.00
2018-03-03T12:48:49.196Z,11632.00
2018-03-03T12:50:42.140Z,11508.00
2018-03-03T12:51:42.080Z,11664.00
2018-03-03T12:53:35.394Z,11992.00
2018-03-03T12:54:35.968Z,12180.00
2018-03-03T12:56:28.285Z,12152.00
2018-03-03T12:57:28.230Z,11964.00
2018-03-03T12:59:21.050Z,11924.00
2018-03-03T13:00:20.999Z,11988.00
2018-03-03T13:02:14.002Z,12076.00
2018-03-03T13:03:13.911Z,12072.00
2018-03-03T13:05:06.889Z,12316.00
2018-03-03T13:06:06.820Z,12524.00
2018-03-03T13:07:59.766Z,13116.00
2018-03-03T13:08:59.756Z,13696.00
2018-03-03T13:10:52.806Z,14280.00
2018-03-03T13:11:52.586Z,14644.00
2018-03-03T13:13:45.535Z,14352.00
2018-03-03T13:14:45.484Z,13852.00
2018-03-03T13:16:38.450Z,13192.00
2018-03-03T13:17:38.494Z,12688.00
2018-03-03T13:19:31.432Z,12024.00
2018-03-03T13:20:31.449Z,11660.00
2018-03-03T13:22:24.250Z,11352.00
2018-03-03T13:23:24.159Z,11428.00
2018-03-03T13:25:17.090Z,11460.00
2018-03-03T13:26:17.066Z,11488.00
2018-03-03T13:28:09.873Z,11864.00
2018-03-03T13:29:09.920Z,12240.00
2018-03-03T13:31:02.696Z,12648.00
2018-03-03T13:32:02.627Z,12608.00
2018-03-03T13:33:55.817Z,12096.00
2018-03-03T13:34:55.806Z,11876.00
2018-03-03T13:36:48.794Z,11112.00
2018-03-03T13:37:48.754Z,11076.00
2018-03-03T13:39:42.559Z,10924.00
2018-03-03T13:40:42.514Z,10716.00
2018-03-03T13:42:35.398Z,10668.00
2018-03-03T13:43:35.362Z,10948.00
2018-03-03T13:45:28.292Z,11536.00
2018-03-03T13:46:28.271Z,11852.00
2018-03-03T13:48:21.273Z,12552.00
2018-03-03T13:49:21.249Z,12668.00
2018-03-03T13:51:14.413Z,13304.00
2018-03-03T13:52:14.315Z,13292.00
2018-03-03T13:54:07.281Z,12840.00
2018-03-03T13:55:07.235Z,13040.00
2018-03-03T13:57:00.154Z,13056.00
2018-03-03T13:58:00.190Z,12868.00
2018-03-03T13:59:53.048Z,12384.00
2018-03-03T14:00:52.955Z,11948.00
2018-03-03T14:02:45.799Z,11576.00
2018-03-03T14:03:45.741Z,12020.00
2018-03-03T14:05:39.562Z,12388.00
2018-03-03T14:06:38.608Z,13032.00
2018-03-03T14:08:31.758Z,12804.00
2018-03-03T14:09:31.709Z,12180.00
2018-03-03T14:11:25.131Z,11084.00
2018-03-03T14:12:24.879Z,10504.00
2018-03-03T14:14:18.067Z,9972.00
2018-03-03T14:15:18.004Z,9572.00
2018-03-03T14:17:11.211Z,9352.00
2018-03-03T14:18:11.125Z,9152.00
2018-03-03T14:20:04.172Z,8612.00
2018-03-03T14:21:05.056Z,8232.00
2018-03-03T14:22:57.042Z,7556.00
2018-03-03T14:23:56.940Z,7188.00
2018-03-03T14:25:50.247Z,6972.00
2018-03-03T14:26:50.224Z,6816.00
2018-03-03T14:28:43.257Z,6412.00
2018-03-03T14:29:43.220Z,6272.00
2018-03-03T14:31:36.332Z,6156.00
2018-03-03T14:32:36.311Z,6192.00
2018-03-03T14:34:29.665Z,6388.00
2018-03-03T14:35:29.583Z,6540.00
2018-03-03T14:37:22.711Z,6716.00
2018-03-03T14:38:22.656Z,6920.00
2018-03-03T14:40:15.706Z,7184.00
2018-03-03T14:41:15.671Z,7256.00
2018-03-03T14:43:08.479Z,7216.00
2018-03-03T14:44:08.406Z,7212.00
2018-03-03T14:46:01.844Z,7520.00
2018-03-03T14:47:01.560Z,7908.00
2018-03-03T14:48:54.795Z,8496.00
2018-03-03T14:49:54.666Z,8680.00
2018-03-03T14:51:47.476Z,8552.00
2018-03-03T14:52:47.441Z,8292.00
2018-03-03T14:54:41.439Z,7764.00
2018-03-03T14:55:42.250Z,7644.00
2018-03-03T14:57:34.403Z,7612.00
2018-03-03T14:58:34.383Z,7512.00
2018-03-03T15:00:27.319Z,7708.00
2018-03-03T15:01:27.290Z,7776.00
2018-03-03T15:03:21.062Z,7912.00
2018-03-03T15:04:20.169Z,7960.00
2018-03-03T15:06:13.140Z,7984.00
2018-03-03T15:07:13.088Z,7968.00
2018-03-03T15:09:05.903Z,7780.00
2018-03-03T15:10:05.849Z,7580.00
2018-03-03T15:11:58.850Z,7272.00
2018-03-03T15:12:58.746Z,7124.00
2018-03-03T15:14:51.695Z,6928.00
2018-03-03T15:15:51.646Z,6796.00
2018-03-03T15:17:44.602Z,6696.00
2018-03-03T15:18:44.578Z,6900.00
2018-03-03T15:20:37.608Z,6796.00
2018-03-03T15:21:37.557Z,6856.00
2018-03-03T15:23:30.518Z,6976.00
2018-03-03T15:24:30.456Z,6976.00
2018-03-03T15:26:23.394Z,6868.00
2018-03-03T15:27:23.359Z,6856.00
2018-03-03T15:29:16.250Z,6788.00
2018-03-03T15:30:16.112Z,6708.00
2018-03-03T15:32:09.037Z,6512.00
2018-03-03T15:33:08.912Z,6420.00
2018-03-03T15:35:01.877Z,6328.00
2018-03-03T15:36:01.826Z,6204.00
2018-03-03T15:37:54.627Z,5968.00
2018-03-03T15:38:54.575Z,5848.00
2018-03-03T15:40:47.377Z,5664.00
2018-03-03T15:41:47.350Z,5524.00
2018-03-03T15:43:40.567Z,5328.00
2018-03-03T15:44:40.452Z,5228.00
2018-03-03T15:46:33.377Z,4968.00
2018-03-03T15:47:33.339Z,4832.00
2018-03-03T15:49:26.310Z,4532.00
2018-03-03T15:50:26.260Z,4388.00
2018-03-03T15:52:19.392Z,4276.00
2018-03-03T15:53:19.276Z,4216.00
2018-03-03T15:55:12.250Z,4104.00
2018-03-03T15:56:12.192Z,4024.00
2018-03-03T15:58:05.197Z,3848.00
2018-03-03T15:59:05.126Z,3720.00
2018-03-03T16:00:58.280Z,3552.00
2018-03-03T16:01:58.219Z,3488.00
2018-03-03T16:03:52.651Z,3380.00
2018-03-03T16:04:50.965Z,3372.00
2018-03-03T16:06:43.922Z,3360.00
2018-03-03T16:07:43.865Z,3352.00
2018-03-03T16:09:37.103Z,3304.00
2018-03-03T16:10:36.925Z,3248.00
2018-03-03T16:12:29.911Z,3148.00
2018-03-03T16:13:29.834Z,3080.00
2018-03-03T16:15:22.758Z,2932.00
2018-03-03T16:16:22.715Z,2860.00
2018-03-03T16:18:16.057Z,2688.00
2018-03-03T16:19:15.976Z,2588.00
2018-03-03T16:21:08.950Z,2376.00
2018-03-03T16:22:08.881Z,2272.00
2018-03-03T16:24:01.883Z,2052.00
2018-03-03T16:25:01.844Z,1972.00
2018-03-03T16:26:54.674Z,1812.00
2018-03-03T16:27:54.642Z,1668.00
2018-03-03T16:29:47.637Z,1396.00
2018-03-03T16:30:47.565Z,1296.00
2018-03-03T16:32:40.519Z,1220.00
2018-03-03T16:33:40.473Z,1232.00
2018-03-03T16:35:33.640Z,1276.00
2018-03-03T16:36:33.529Z,1252.00
2018-03-03T16:38:26.533Z,1124.00
2018-03-03T16:39:26.454Z,1048.00
2018-03-03T16:41:19.406Z,940.00
2018-03-03T16:42:19.378Z,872.00
2018-03-03T16:44:12.495Z,772.00
2018-03-03T16:45:12.368Z,732.00
2018-03-03T16:47:05.322Z,676.00
2018-03-03T16:48:05.312Z,648.00
2018-03-03T16:49:58.216Z,596.00
2018-03-03T16:50:58.155Z,572.00
2018-03-03T16:52:51.366Z,524.00
2018-03-03T16:53:51.254Z,496.00
2018-03-03T16:55:44.204Z,456.00
2018-03-03T16:56:44.131Z,432.00
2018-03-03T16:58:37.074Z,388.00
2018-03-03T16:59:37.003Z,368.00
2018-03-03T17:01:30.294Z,328.00
2018-03-03T17:02:30.082Z,312.00
2018-03-03T17:04:23.022Z,276.00
2018-03-03T17:05:22.984Z,260.00
2018-03-03T17:07:15.912Z,228.00
2018-03-03T17:08:15.871Z,212.00
2018-03-03T17:10:08.785Z,184.00
2018-03-03T17:11:08.727Z,172.00
2018-03-03T17:13:03.667Z,148.00
2018-03-03T17:14:01.575Z,136.00
2018-03-03T17:15:54.517Z,120.00
2018-03-03T17:16:54.468Z,108.00
2018-03-03T17:18:47.417Z,88.00
2018-03-03T17:19:47.387Z,80.00
2018-03-03T17:21:40.156Z,64.00
2018-03-03T17:22:40.105Z,60.00
2018-03-03T17:24:33.137Z,44.00
2018-03-03T17:25:33.001Z,44.00
2018-03-03T17:27:25.930Z,36.00
2018-03-03T17:28:25.892Z,28.00
2018-03-03T17:30:18.845Z,24.00
2018-03-03T17:31:18.906Z,16.00
2018-03-03T17:33:11.718Z,16.00
2018-03-03T17:34:11.647Z,12.00
2018-03-03T17:36:04.447Z,8.00
2018-03-03T17:37:04.439Z,8.00
2018-03-03T17:38:57.372Z,4.00
2018-03-03T17:39:57.296Z,4.00
2018-03-03T17:41:50.094Z,4.00
2018-03-03T17:42:50.070Z,0.00
2018-03-03T17:44:43.005Z,4.00
2018-03-03T17:45:42.927Z,0.00
2018-03-03T17:47:35.864Z,4.00
2018-03-03T17:48:35.817Z,0.00
2018-03-03T17:50:28.646Z,0.00
2018-03-03T17:51:28.587Z,0.00
2018-03-03T17:53:21.440Z,0.00
2018-03-03T17:54:21.361Z,0.00
2018-03-03T17:56:14.312Z,0.00
2018-03-03T17:57:14.216Z,0.00